Disclaimer

Please do not use the information listed here in-flight or in-navigation, as they are not provided to us by the airports but are provided by volunteers, so they might be outdated.

Search


Regions


Airport information page

No radio frequency information is available.

Airport informations:
Latitude: 26° 29' 44.32" S
Longitude: 029° 58' 47.15" E
Elevation: 5700 feet - 1737 meters
Operating hours: From sunrise to sunset (SR-SS)
Operating agency: Municipal
Timezone: UTC+2
Fuel: N/A

Runway information:
13/31 - 5085 x 33 feet< - >1550 x 10 meters

Recent METARs:
FAEO 130353Z 34003KT CAVOK 14/09 Q1026
FAEO 130353Z 34003KT CAVOK 14/09 Q1026
FAEO 130430Z 30004KT CAVOK 16/09 Q1026

Airport on the map: